createdAt,value
2023-05-10T00:01:30.217Z,6.32
2023-05-10T00:06:47.503Z,6.16
2023-05-10T00:09:15.199Z,6.11
2023-05-10T00:11:41.847Z,6.07
2023-05-10T00:14:08.540Z,5.99
2023-05-10T00:16:35.264Z,5.91
2023-05-10T00:19:02.077Z,5.87
2023-05-10T00:21:29.473Z,5.80
2023-05-10T00:23:56.267Z,5.77
2023-05-10T00:26:23.019Z,5.74
2023-05-10T00:28:49.755Z,5.71
2023-05-10T00:31:16.797Z,5.65
2023-05-10T00:33:43.539Z,5.60
2023-05-10T00:36:10.178Z,5.53
2023-05-10T00:38:36.857Z,5.48
2023-05-10T00:41:03.959Z,5.45
2023-05-10T00:43:31.106Z,5.43
2023-05-10T00:45:58.399Z,5.39
2023-05-10T00:48:25.563Z,5.35
2023-05-10T00:50:52.950Z,5.32
2023-05-10T00:53:20.072Z,5.27
2023-05-10T00:55:46.851Z,5.22
2023-05-10T00:58:14.034Z,5.22
2023-05-10T01:00:43.745Z,5.18
2023-05-10T01:03:12.541Z,5.13
2023-05-10T01:05:39.807Z,5.11
2023-05-10T01:08:08.047Z,5.10
2023-05-10T01:10:34.786Z,5.10
2023-05-10T01:13:01.886Z,5.06
2023-05-10T01:15:28.827Z,5.00
2023-05-10T01:17:56.252Z,4.96
2023-05-10T01:20:23.270Z,4.97
2023-05-10T01:23:17.686Z,4.96
2023-05-10T01:26:21.869Z,4.95
2023-05-10T01:29:07.011Z,4.87
2023-05-10T01:32:10.020Z,4.83
2023-05-10T01:34:59.870Z,4.75
2023-05-10T01:37:38.955Z,4.69
2023-05-10T01:40:35.165Z,4.67
2023-05-10T01:43:08.989Z,4.64
2023-05-10T01:45:46.689Z,4.63
2023-05-10T01:48:15.183Z,4.61
2023-05-10T01:50:46.488Z,4.63
2023-05-10T01:53:18.232Z,4.67
2023-05-10T01:55:50.727Z,4.68
2023-05-10T01:58:29.678Z,4.65
2023-05-10T02:00:59.405Z,4.63
2023-05-10T02:03:28.426Z,4.61
2023-05-10T02:05:57.343Z,4.56
2023-05-10T02:08:25.083Z,4.51
2023-05-10T02:10:55.879Z,4.48
2023-05-10T02:13:25.354Z,4.45
2023-05-10T02:15:54.244Z,4.41
2023-05-10T02:18:23.332Z,4.41
2023-05-10T02:20:51.133Z,4.37
2023-05-10T02:23:19.375Z,4.37
2023-05-10T02:25:47.653Z,4.34
2023-05-10T02:28:15.866Z,4.30
2023-05-10T02:30:43.535Z,4.26
2023-05-10T02:33:10.979Z,4.25
2023-05-10T02:35:39.536Z,4.17
2023-05-10T02:38:08.427Z,4.13
2023-05-10T02:40:37.816Z,4.10
2023-05-10T02:43:06.546Z,4.08
2023-05-10T02:45:36.771Z,4.05
2023-05-10T02:48:04.225Z,4.01
2023-05-10T02:50:33.836Z,3.97
2023-05-10T02:53:12.690Z,3.95
2023-05-10T02:55:43.248Z,3.93
2023-05-10T02:58:11.574Z,3.90
2023-05-10T03:00:38.372Z,3.88
2023-05-10T03:03:05.177Z,3.89
2023-05-10T03:05:32.154Z,3.92
2023-05-10T03:07:59.056Z,3.95
2023-05-10T03:10:30.291Z,3.93
2023-05-10T03:13:37.183Z,3.90
2023-05-10T03:16:32.979Z,3.90
2023-05-10T03:19:06.662Z,3.90
2023-05-10T03:21:34.213Z,3.88
2023-05-10T03:24:09.736Z,3.87
2023-05-10T03:26:39.014Z,3.89
2023-05-10T03:29:07.555Z,3.88
2023-05-10T03:31:34.506Z,3.87
2023-05-10T03:34:01.254Z,3.88
2023-05-10T03:36:28.042Z,3.89
2023-05-10T03:38:54.782Z,3.88
2023-05-10T03:41:21.785Z,3.85
2023-05-10T03:43:49.975Z,3.86
2023-05-10T03:46:16.717Z,3.86
2023-05-10T03:48:43.916Z,3.88
2023-05-10T03:51:10.766Z,3.88
2023-05-10T03:53:37.453Z,3.89
2023-05-10T03:56:06.009Z,3.91
2023-05-10T03:58:34.660Z,3.94
2023-05-10T04:01:01.377Z,4.00
2023-05-10T04:03:28.178Z,4.05
2023-05-10T04:06:02.774Z,4.10
2023-05-10T04:08:30.077Z,4.14
2023-05-10T04:11:09.198Z,4.13
2023-05-10T04:13:36.173Z,4.14
2023-05-10T04:16:03.111Z,4.16
2023-05-10T04:18:29.971Z,4.22
2023-05-10T04:20:57.024Z,4.28
2023-05-10T04:23:23.772Z,4.34
2023-05-10T04:25:50.553Z,4.42
2023-05-10T04:28:17.749Z,4.48
2023-05-10T04:30:44.477Z,4.56
2023-05-10T04:33:11.231Z,4.60
2023-05-10T04:35:38.023Z,4.69
2023-05-10T04:38:04.782Z,4.76
2023-05-10T04:40:31.520Z,4.79
2023-05-10T04:42:58.260Z,4.82
2023-05-10T04:45:24.998Z,4.88
2023-05-10T04:47:51.992Z,4.97
2023-05-10T04:50:18.853Z,5.05
2023-05-10T04:52:46.145Z,5.18
2023-05-10T04:55:12.826Z,5.34
2023-05-10T04:57:39.527Z,5.47
2023-05-10T05:00:06.926Z,5.61
2023-05-10T05:02:33.652Z,5.74
2023-05-10T05:05:00.647Z,5.85
2023-05-10T05:07:27.342Z,5.94
2023-05-10T05:09:54.089Z,6.11
2023-05-10T05:12:21.237Z,6.29
2023-05-10T05:14:48.537Z,6.42
2023-05-10T05:17:15.219Z,6.57
2023-05-10T05:19:41.933Z,6.73
2023-05-10T05:22:09.746Z,6.87
2023-05-10T05:24:39.258Z,6.93
2023-05-10T05:27:07.053Z,6.99
2023-05-10T05:29:34.134Z,7.04
2023-05-10T05:32:01.379Z,7.10
2023-05-10T05:34:29.815Z,7.16
2023-05-10T05:37:03.593Z,7.26
2023-05-10T05:39:32.560Z,7.37
2023-05-10T05:41:59.489Z,7.56
2023-05-10T05:44:26.695Z,7.69
2023-05-10T05:46:53.562Z,7.82
2023-05-10T05:49:24.029Z,7.93
2023-05-10T05:51:57.708Z,8.03
2023-05-10T05:54:28.314Z,8.21
2023-05-10T05:57:01.048Z,8.41
2023-05-10T05:59:29.207Z,8.58
2023-05-10T06:01:56.044Z,8.75
2023-05-10T06:04:22.920Z,8.94
2023-05-10T06:06:49.862Z,9.45
2023-05-10T06:09:17.038Z,10.98
2023-05-10T06:11:44.663Z,13.05
2023-05-10T06:14:11.658Z,15.20
2023-05-10T06:16:38.500Z,17.13
2023-05-10T06:19:06.458Z,19.04
2023-05-10T06:21:33.262Z,20.80
2023-05-10T06:24:01.128Z,22.31
2023-05-10T06:26:27.867Z,23.38
2023-05-10T06:28:55.732Z,24.23
2023-05-10T06:31:22.489Z,25.26
2023-05-10T06:33:49.267Z,25.75
2023-05-10T06:36:17.232Z,26.34
2023-05-10T06:38:43.974Z,27.04
2023-05-10T06:41:10.821Z,27.48
2023-05-10T06:43:41.305Z,27.70
2023-05-10T06:46:08.485Z,28.30
2023-05-10T06:48:35.961Z,29.40
2023-05-10T06:51:03.350Z,30.55
2023-05-10T06:53:30.155Z,31.31
2023-05-10T06:55:57.358Z,31.41
2023-05-10T06:58:24.413Z,31.41
2023-05-10T07:00:51.578Z,31.46
2023-05-10T07:03:18.467Z,31.58
2023-05-10T07:05:45.540Z,31.46
2023-05-10T07:08:12.288Z,31.70
2023-05-10T07:10:39.028Z,31.78
2023-05-10T07:13:05.830Z,32.37
2023-05-10T07:15:32.967Z,33.22
2023-05-10T07:17:59.875Z,34.13
2023-05-10T07:20:26.697Z,34.74
2023-05-10T07:22:53.409Z,35.13
2023-05-10T07:25:21.898Z,35.52
2023-05-10T07:27:49.663Z,35.99
2023-05-10T07:30:16.549Z,35.49
2023-05-10T07:32:43.998Z,35.18
2023-05-10T07:35:10.804Z,34.47
2023-05-10T07:37:37.518Z,34.77
2023-05-10T07:40:04.766Z,35.21
2023-05-10T07:42:31.474Z,35.52
2023-05-10T07:44:59.373Z,34.69
2023-05-10T07:47:26.153Z,34.26
2023-05-10T07:49:53.032Z,34.35
2023-05-10T07:52:22.419Z,33.92
2023-05-10T07:54:50.529Z,33.82
2023-05-10T07:57:19.205Z,34.53
2023-05-10T07:59:46.444Z,35.09
2023-05-10T08:02:13.205Z,35.67
2023-05-10T08:04:40.051Z,35.63
2023-05-10T08:07:06.793Z,35.61
2023-05-10T08:09:33.448Z,35.70
2023-05-10T08:12:01.156Z,36.03
2023-05-10T08:14:30.522Z,36.16
2023-05-10T08:16:58.573Z,35.73
2023-05-10T08:19:26.722Z,35.41
2023-05-10T08:21:55.399Z,35.08
2023-05-10T08:24:23.509Z,34.87
2023-05-10T08:26:51.268Z,35.18
2023-05-10T08:29:18.126Z,35.21
2023-05-10T08:31:46.968Z,35.57
2023-05-10T08:34:17.360Z,35.85
2023-05-10T08:36:45.080Z,35.86
2023-05-10T08:39:19.481Z,36.08
2023-05-10T08:42:00.315Z,36.52
2023-05-10T08:44:27.284Z,36.30
2023-05-10T08:46:55.515Z,36.44
2023-05-10T08:49:24.292Z,36.68
2023-05-10T08:51:58.145Z,36.56
2023-05-10T08:54:28.235Z,35.98
2023-05-10T08:56:55.117Z,35.41
2023-05-10T08:59:22.120Z,33.86
2023-05-10T09:01:52.515Z,32.22
2023-05-10T09:04:20.536Z,30.73
2023-05-10T09:06:49.046Z,29.65
2023-05-10T09:09:19.358Z,28.72
2023-05-10T09:11:46.504Z,27.61
2023-05-10T09:14:15.948Z,26.66
2023-05-10T09:16:48.987Z,25.12
2023-05-10T09:19:15.966Z,23.53
2023-05-10T09:21:42.775Z,22.74
2023-05-10T09:24:10.145Z,22.19
2023-05-10T09:26:47.530Z,21.68
2023-05-10T09:29:17.194Z,21.05
2023-05-10T09:31:52.680Z,20.59
2023-05-10T09:34:22.212Z,19.97
2023-05-10T09:36:58.048Z,19.52
2023-05-10T09:39:34.812Z,19.02
2023-05-10T09:42:04.980Z,18.55
2023-05-10T09:44:33.638Z,18.26
2023-05-10T09:47:02.136Z,18.11
2023-05-10T09:49:29.621Z,17.96
2023-05-10T09:52:07.546Z,17.95
2023-05-10T09:54:35.117Z,17.72
2023-05-10T09:57:02.481Z,17.58
2023-05-10T09:59:30.260Z,17.55
2023-05-10T10:01:59.218Z,17.50
2023-05-10T10:04:26.640Z,17.46
2023-05-10T10:07:01.998Z,17.40
2023-05-10T10:09:29.286Z,17.47
2023-05-10T10:11:58.901Z,17.65
2023-05-10T10:14:25.516Z,17.51
2023-05-10T10:17:06.826Z,17.23
2023-05-10T10:19:38.786Z,16.90
2023-05-10T10:22:06.163Z,16.51
2023-05-10T10:24:32.933Z,16.28
2023-05-10T10:27:16.024Z,16.31
2023-05-10T10:30:22.612Z,16.42
2023-05-10T10:33:28.746Z,16.46
2023-05-10T10:35:59.016Z,16.37
2023-05-10T10:38:26.001Z,16.33
2023-05-10T10:41:29.496Z,16.52
2023-05-10T10:44:27.869Z,16.53
2023-05-10T10:47:31.126Z,16.59
2023-05-10T10:50:07.226Z,16.71
2023-05-10T10:52:41.029Z,16.61
2023-05-10T10:55:10.722Z,16.47
2023-05-10T10:57:49.707Z,16.14
2023-05-10T11:00:20.276Z,16.12
2023-05-10T11:02:52.534Z,16.12
2023-05-10T11:05:37.657Z,16.09
2023-05-10T11:08:35.123Z,16.18
2023-05-10T11:11:08.356Z,16.25
2023-05-10T11:13:41.022Z,16.40
2023-05-10T11:16:21.342Z,16.66
2023-05-10T11:19:09.325Z,16.92
2023-05-10T11:21:49.800Z,17.23
2023-05-10T11:24:24.219Z,17.39
2023-05-10T11:26:54.740Z,17.28
2023-05-10T11:29:23.066Z,17.21
2023-05-10T11:31:50.728Z,17.21
2023-05-10T11:34:34.969Z,17.14
2023-05-10T11:37:02.029Z,17.19
2023-05-10T11:39:31.345Z,17.32
2023-05-10T11:42:06.791Z,17.52
2023-05-10T11:44:34.129Z,17.73
2023-05-10T11:47:01.963Z,17.90
2023-05-10T11:49:28.895Z,17.92
2023-05-10T11:52:09.260Z,18.01
2023-05-10T11:54:36.420Z,18.07
2023-05-10T11:57:04.801Z,18.08
2023-05-10T11:59:31.524Z,18.35
2023-05-10T12:01:58.633Z,18.60
2023-05-10T12:04:26.005Z,18.77
2023-05-10T12:06:53.447Z,19.02
2023-05-10T12:09:31.459Z,19.13
2023-05-10T12:12:03.547Z,18.93
2023-05-10T12:14:36.309Z,19.04
2023-05-10T12:17:03.062Z,19.14
2023-05-10T12:19:37.738Z,19.16
2023-05-10T12:22:06.852Z,19.25
2023-05-10T12:24:39.313Z,19.29
2023-05-10T12:27:09.356Z,19.28
2023-05-10T12:29:39.002Z,19.25
2023-05-10T12:32:06.635Z,19.20
2023-05-10T12:34:39.976Z,19.24
2023-05-10T12:37:08.186Z,19.29
2023-05-10T12:39:45.875Z,19.38
2023-05-10T12:42:13.014Z,19.33
2023-05-10T12:44:40.309Z,19.25
2023-05-10T12:47:07.272Z,19.26
2023-05-10T12:49:35.343Z,19.15
2023-05-10T12:52:02.260Z,19.21
2023-05-10T12:54:33.107Z,19.31
2023-05-10T12:56:59.885Z,19.31
2023-05-10T12:59:26.589Z,19.15
2023-05-10T13:01:54.072Z,18.98
2023-05-10T13:04:22.040Z,18.96
2023-05-10T13:06:49.193Z,18.95
2023-05-10T13:09:17.320Z,18.86
2023-05-10T13:11:44.207Z,18.76
2023-05-10T13:14:11.301Z,18.73
2023-05-10T13:16:38.653Z,18.50
2023-05-10T13:19:05.994Z,18.37
2023-05-10T13:21:33.047Z,18.24
2023-05-10T13:23:59.904Z,18.00
2023-05-10T13:26:27.798Z,17.82
2023-05-10T13:28:56.643Z,17.67
2023-05-10T13:31:24.695Z,17.68
2023-05-10T13:33:53.099Z,17.63
2023-05-10T13:36:19.989Z,17.66
2023-05-10T13:38:47.399Z,17.82
2023-05-10T13:41:15.136Z,17.95
2023-05-10T13:43:44.947Z,17.97
2023-05-10T13:46:11.857Z,17.98
2023-05-10T13:48:39.794Z,17.95
2023-05-10T13:51:06.570Z,17.90
2023-05-10T13:53:33.632Z,17.86
2023-05-10T13:56:01.609Z,17.77
2023-05-10T13:58:32.226Z,17.76
2023-05-10T14:00:59.185Z,17.76
2023-05-10T14:03:26.109Z,17.71
2023-05-10T14:05:52.967Z,17.51
2023-05-10T14:08:21.299Z,17.44
2023-05-10T14:10:49.877Z,17.42
2023-05-10T14:13:16.773Z,17.32
2023-05-10T14:15:43.501Z,17.26
2023-05-10T14:18:10.371Z,17.28
2023-05-10T14:20:37.858Z,17.36
2023-05-10T14:23:04.668Z,17.42
2023-05-10T14:25:31.964Z,17.38
2023-05-10T14:27:58.848Z,17.35
2023-05-10T14:30:25.644Z,17.35
2023-05-10T14:32:53.910Z,17.21
2023-05-10T14:35:21.779Z,17.12
2023-05-10T14:37:49.390Z,17.11
2023-05-10T14:40:18.459Z,17.14
2023-05-10T14:42:45.378Z,17.19
2023-05-10T14:45:13.123Z,17.18
2023-05-10T14:47:40.263Z,17.15
2023-05-10T14:50:09.063Z,17.11
2023-05-10T14:52:36.274Z,17.10
2023-05-10T14:55:05.494Z,17.12
2023-05-10T14:57:33.421Z,17.19
2023-05-10T15:00:01.381Z,17.29
2023-05-10T15:02:28.786Z,17.28
2023-05-10T15:04:56.402Z,17.37
2023-05-10T15:07:23.784Z,17.37
2023-05-10T15:09:52.960Z,17.44
2023-05-10T15:12:20.245Z,17.61
2023-05-10T15:14:47.487Z,17.86
2023-05-10T15:17:14.379Z,17.97
2023-05-10T15:19:42.659Z,17.95
2023-05-10T15:22:09.695Z,17.79
2023-05-10T15:24:36.865Z,17.65
2023-05-10T15:27:04.211Z,17.59
2023-05-10T15:29:32.566Z,17.49
2023-05-10T15:32:00.464Z,17.45
2023-05-10T15:34:28.245Z,17.33
2023-05-10T15:36:56.370Z,17.28
2023-05-10T15:39:24.246Z,17.24
2023-05-10T15:41:51.051Z,17.22
2023-05-10T15:44:17.970Z,17.08
2023-05-10T15:46:45.439Z,16.94
2023-05-10T15:49:13.597Z,16.83
2023-05-10T15:51:41.102Z,16.80
2023-05-10T15:54:08.559Z,16.83
2023-05-10T15:56:36.016Z,16.84
2023-05-10T15:59:04.010Z,16.88
2023-05-10T16:01:32.722Z,16.97
2023-05-10T16:03:59.675Z,17.00
2023-05-10T16:06:27.320Z,17.08
2023-05-10T16:08:54.829Z,17.11
2023-05-10T16:11:22.129Z,17.10
2023-05-10T16:13:52.982Z,17.09
2023-05-10T16:16:20.422Z,17.06
2023-05-10T16:18:47.658Z,16.91
2023-05-10T16:21:15.301Z,16.80
2023-05-10T16:23:45.367Z,16.73
2023-05-10T16:26:13.733Z,16.71
2023-05-10T16:28:42.683Z,16.75
2023-05-10T16:31:09.908Z,16.76
2023-05-10T16:33:38.989Z,16.64
2023-05-10T16:36:06.652Z,16.49
2023-05-10T16:38:34.637Z,16.33
2023-05-10T16:41:04.995Z,16.30
2023-05-10T16:43:33.085Z,16.24
2023-05-10T16:46:01.154Z,16.13
2023-05-10T16:48:28.106Z,16.05
2023-05-10T16:50:55.432Z,15.99
2023-05-10T16:53:24.237Z,15.97
2023-05-10T16:55:51.147Z,15.90
2023-05-10T16:58:18.984Z,15.91
2023-05-10T17:00:46.871Z,15.93
2023-05-10T17:03:14.457Z,15.89
2023-05-10T17:05:42.421Z,15.90
2023-05-10T17:08:10.885Z,15.88
2023-05-10T17:10:40.251Z,15.81
2023-05-10T17:13:09.356Z,15.74
2023-05-10T17:15:38.672Z,15.61
2023-05-10T17:18:14.434Z,15.62
2023-05-10T17:20:46.060Z,15.58
2023-05-10T17:23:13.974Z,15.61
2023-05-10T17:25:42.500Z,15.60
2023-05-10T17:28:09.392Z,15.52
2023-05-10T17:30:36.363Z,15.47
2023-05-10T17:33:06.779Z,15.36
2023-05-10T17:35:34.896Z,15.27
2023-05-10T17:38:01.935Z,15.22
2023-05-10T17:40:36.549Z,15.23
2023-05-10T17:43:04.527Z,15.20
2023-05-10T17:45:32.412Z,15.10
2023-05-10T17:48:00.261Z,14.95
2023-05-10T17:50:27.179Z,14.84
2023-05-10T17:52:54.586Z,14.78
2023-05-10T17:55:23.814Z,14.65
2023-05-10T17:57:52.059Z,14.46
2023-05-10T18:00:20.094Z,14.32
2023-05-10T18:02:47.467Z,14.20
2023-05-10T18:05:14.642Z,14.10
2023-05-10T18:07:41.624Z,13.98
2023-05-10T18:10:09.173Z,13.83
2023-05-10T18:12:36.051Z,13.71
2023-05-10T18:15:05.729Z,13.66
2023-05-10T18:17:35.818Z,13.59
2023-05-10T18:20:04.854Z,13.55
2023-05-10T18:22:31.983Z,13.53
2023-05-10T18:24:59.314Z,13.46
2023-05-10T18:27:27.196Z,13.41
2023-05-10T18:29:54.265Z,13.34
2023-05-10T18:32:21.429Z,13.31
2023-05-10T18:34:48.982Z,13.29
2023-05-10T18:37:16.711Z,13.30
2023-05-10T18:39:44.257Z,13.24
2023-05-10T18:42:11.205Z,13.20
2023-05-10T18:44:38.701Z,13.13
2023-05-10T18:47:05.612Z,13.05
2023-05-10T18:49:33.026Z,13.02
2023-05-10T18:52:00.333Z,12.96
2023-05-10T18:54:27.497Z,12.89
2023-05-10T18:56:54.659Z,12.85
2023-05-10T18:59:25.354Z,12.85
2023-05-10T19:01:57.102Z,12.80
2023-05-10T19:04:25.354Z,12.75
2023-05-10T19:06:53.047Z,12.68
2023-05-10T19:09:21.375Z,12.62
2023-05-10T19:11:48.998Z,12.56
2023-05-10T19:14:16.493Z,12.55
2023-05-10T19:16:44.066Z,12.51
2023-05-10T19:19:14.587Z,12.46
2023-05-10T19:21:42.570Z,12.36
2023-05-10T19:24:12.683Z,12.31
2023-05-10T19:26:39.809Z,12.26
2023-05-10T19:29:07.088Z,12.16
2023-05-10T19:31:37.329Z,12.06
2023-05-10T19:34:05.464Z,11.99
2023-05-10T19:36:34.294Z,11.91
2023-05-10T19:39:01.064Z,11.82
2023-05-10T19:41:27.810Z,11.77
2023-05-10T19:43:55.653Z,11.72
2023-05-10T19:46:23.959Z,11.66
2023-05-10T19:48:52.952Z,11.59
2023-05-10T19:51:20.343Z,11.58
2023-05-10T19:53:48.372Z,11.53
2023-05-10T19:56:15.236Z,11.47
2023-05-10T19:58:43.336Z,11.43
2023-05-10T20:01:10.047Z,11.26
2023-05-10T20:03:37.391Z,11.26
2023-05-10T20:06:04.469Z,11.20
2023-05-10T20:08:31.562Z,11.19
2023-05-10T20:11:02.757Z,11.16
2023-05-10T20:13:30.053Z,11.10
2023-05-10T20:15:58.184Z,11.09
2023-05-10T20:18:26.186Z,11.09
2023-05-10T20:20:55.031Z,11.14
2023-05-10T20:23:22.385Z,11.12
2023-05-10T20:25:49.185Z,11.10
2023-05-10T20:28:16.082Z,11.09
2023-05-10T20:30:43.025Z,11.05
2023-05-10T20:33:09.857Z,11.04
2023-05-10T20:35:36.890Z,11.01
2023-05-10T20:38:05.302Z,10.99
2023-05-10T20:40:31.986Z,10.96
2023-05-10T20:42:58.875Z,10.89
2023-05-10T20:45:25.567Z,10.81
2023-05-10T20:47:53.577Z,10.79
2023-05-10T20:50:20.647Z,10.75
2023-05-10T20:52:47.528Z,10.69
2023-05-10T20:55:14.536Z,10.66
2023-05-10T20:57:41.262Z,10.66
2023-05-10T21:00:10.023Z,10.62
2023-05-10T21:02:36.999Z,10.60
2023-05-10T21:05:04.020Z,10.58
2023-05-10T21:07:33.261Z,10.50
2023-05-10T21:09:59.983Z,10.44
2023-05-10T21:12:26.736Z,10.41
2023-05-10T21:14:53.482Z,10.32
2023-05-10T21:17:20.433Z,10.24
2023-05-10T21:19:47.184Z,10.20
2023-05-10T21:22:13.952Z,10.17
2023-05-10T21:24:41.875Z,10.10
2023-05-10T21:27:10.056Z,10.05
2023-05-10T21:29:36.859Z,9.99
2023-05-10T21:32:03.691Z,9.94
2023-05-10T21:34:31.157Z,9.88
2023-05-10T21:36:57.895Z,9.84
2023-05-10T21:39:24.881Z,9.82
2023-05-10T21:41:51.637Z,9.75
2023-05-10T21:44:18.689Z,9.73
2023-05-10T21:46:46.507Z,9.67
2023-05-10T21:49:13.464Z,9.67
2023-05-10T21:51:40.128Z,9.65
2023-05-10T21:54:07.305Z,9.62
2023-05-10T21:56:34.035Z,9.59
2023-05-10T21:59:00.786Z,9.56
2023-05-10T22:01:27.492Z,9.53
2023-05-10T22:03:54.304Z,9.51
2023-05-10T22:06:20.988Z,9.50
2023-05-10T22:08:47.693Z,9.49
2023-05-10T22:11:14.403Z,9.51
2023-05-10T22:13:41.140Z,9.48
2023-05-10T22:16:07.831Z,9.46
2023-05-10T22:18:34.847Z,9.46
2023-05-10T22:21:01.614Z,9.46
2023-05-10T22:23:28.981Z,9.46
2023-05-10T22:26:00.802Z,9.47
2023-05-10T22:28:27.456Z,9.46
2023-05-10T22:30:54.316Z,9.41
2023-05-10T22:33:21.345Z,9.38
2023-05-10T22:35:49.365Z,9.36
2023-05-10T22:38:17.784Z,9.34
2023-05-10T22:40:44.584Z,9.33
2023-05-10T22:43:11.275Z,9.35
2023-05-10T22:45:38.139Z,9.39
2023-05-10T22:48:05.359Z,9.41
2023-05-10T22:50:32.186Z,9.39
2023-05-10T22:53:00.156Z,9.38
2023-05-10T22:55:26.922Z,9.37
2023-05-10T22:57:54.085Z,9.34
2023-05-10T23:00:21.147Z,9.32
2023-05-10T23:02:48.112Z,9.31
2023-05-10T23:05:14.844Z,9.29
2023-05-10T23:10:44.478Z,9.21
2023-05-10T23:13:11.156Z,9.12
2023-05-10T23:15:38.287Z,9.11
2023-05-10T23:18:06.036Z,9.13
2023-05-10T23:20:33.353Z,9.14
2023-05-10T23:23:00.043Z,9.12
2023-05-10T23:25:26.763Z,9.10
2023-05-10T23:27:53.527Z,9.07
2023-05-10T23:30:20.419Z,9.06
2023-05-10T23:32:47.164Z,9.03
2023-05-10T23:35:13.873Z,9.03
2023-05-10T23:37:42.393Z,9.02
2023-05-10T23:40:09.752Z,9.01
2023-05-10T23:42:36.458Z,8.98
2023-05-10T23:45:03.280Z,8.95
2023-05-10T23:47:32.067Z,8.90
2023-05-10T23:49:58.909Z,8.83
2023-05-10T23:52:25.715Z,8.81
2023-05-10T23:54:54.243Z,8.80
2023-05-10T23:57:20.901Z,8.81
2023-05-10T23:59:47.758Z,8.77
